sensor_id;sensor_type;location;lat;lon;timestamp;temperature;humidity
9965;DHT22;5023;53.554;9.964;2024-03-08T00:00:00;3.50;99.90
9965;DHT22;5023;53.554;9.964;2024-03-08T00:05:10;3.40;99.90
9965;DHT22;5023;53.554;9.964;2024-03-08T00:10:13;3.40;99.90
9965;DHT22;5023;53.554;9.964;2024-03-08T00:15:16;3.30;99.90
9965;DHT22;5023;53.554;9.964;2024-03-08T00:20:18;3.30;99.90
9965;DHT22;5023;53.554;9.964;2024-03-08T00:25:22;3.30;99.90
9965;DHT22;5023;53.554;9.964;2024-03-08T00:30:24;3.30;99.90
9965;DHT22;5023;53.554;9.964;2024-03-08T00:35:26;3.20;99.90
9965;DHT22;5023;53.554;9.964;2024-03-08T00:40:30;3.20;99.90
9965;DHT22;5023;53.554;9.964;2024-03-08T00:45:32;3.50;99.90
9965;DHT22;5023;53.554;9.964;2024-03-08T00:50:33;3.10;99.90
9965;DHT22;5023;53.554;9.964;2024-03-08T00:55:37;3.10;99.90
9965;DHT22;5023;53.554;9.964;2024-03-08T01:00:39;3.10;99.90
9965;DHT22;5023;53.554;9.964;2024-03-08T01:05:41;3.00;99.90
9965;DHT22;5023;53.554;9.964;2024-03-08T01:10:44;3.00;99.90
9965;DHT22;5023;53.554;9.964;2024-03-08T01:15:46;3.00;99.90
9965;DHT22;5023;53.554;9.964;2024-03-08T01:20:48;2.90;99.90
9965;DHT22;5023;53.554;9.964;2024-03-08T01:25:51;2.90;99.90
9965;DHT22;5023;53.554;9.964;2024-03-08T01:30:57;2.80;99.90
9965;DHT22;5023;53.554;9.964;2024-03-08T01:35:59;2.90;99.90
9965;DHT22;5023;53.554;9.964;2024-03-08T01:41:02;2.80;99.90
9965;DHT22;5023;53.554;9.964;2024-03-08T01:46:05;2.80;99.90
9965;DHT22;5023;53.554;9.964;2024-03-08T01:51:09;2.80;99.90
9965;DHT22;5023;53.554;9.964;2024-03-08T01:56:14;2.70;99.90
9965;DHT22;5023;53.554;9.964;2024-03-08T02:01:16;2.70;99.90
9965;DHT22;5023;53.554;9.964;2024-03-08T02:06:19;2.60;99.90
9965;DHT22;5023;53.554;9.964;2024-03-08T02:11:22;2.60;99.90
9965;DHT22;5023;53.554;9.964;2024-03-08T02:16:24;2.60;99.90
9965;DHT22;5023;53.554;9.964;2024-03-08T02:21:28;2.60;99.90
9965;DHT22;5023;53.554;9.964;2024-03-08T02:26:31;2.50;99.90
9965;DHT22;5023;53.554;9.964;2024-03-08T02:31:33;2.50;99.90
9965;DHT22;5023;53.554;9.964;2024-03-08T02:36:36;2.90;99.90
9965;DHT22;5023;53.554;9.964;2024-03-08T02:41:38;2.40;99.90
9965;DHT22;5023;53.554;9.964;2024-03-08T02:46:40;2.40;99.90
9965;DHT22;5023;53.554;9.964;2024-03-08T02:51:57;2.40;99.90
9965;DHT22;5023;53.554;9.964;2024-03-08T02:56:59;2.40;99.90
9965;DHT22;5023;53.554;9.964;2024-03-08T03:02:01;2.40;99.90
9965;DHT22;5023;53.554;9.964;2024-03-08T03:07:05;2.40;99.90
9965;DHT22;5023;53.554;9.964;2024-03-08T03:12:07;2.40;99.90
9965;DHT22;5023;53.554;9.964;2024-03-08T03:17:10;2.30;99.90
9965;DHT22;5023;53.554;9.964;2024-03-08T03:22:13;2.30;99.90
9965;DHT22;5023;53.554;9.964;2024-03-08T03:27:16;2.50;99.90
9965;DHT22;5023;53.554;9.964;2024-03-08T03:32:18;2.30;99.90
9965;DHT22;5023;53.554;9.964;2024-03-08T03:37:21;2.10;99.90
9965;DHT22;5023;53.554;9.964;2024-03-08T03:42:23;2.10;99.90
9965;DHT22;5023;53.554;9.964;2024-03-08T03:47:27;2.20;99.90
9965;DHT22;5023;53.554;9.964;2024-03-08T03:52:30;2.10;99.90
9965;DHT22;5023;53.554;9.964;2024-03-08T03:57:32;2.10;99.90
9965;DHT22;5023;53.554;9.964;2024-03-08T04:02:34;2.10;99.90
9965;DHT22;5023;53.554;9.964;2024-03-08T04:07:37;2.10;99.90
9965;DHT22;5023;53.554;9.964;2024-03-08T04:12:39;2.00;99.90
9965;DHT22;5023;53.554;9.964;2024-03-08T04:17:41;2.60;99.90
9965;DHT22;5023;53.554;9.964;2024-03-08T04:22:44;2.40;99.90
9965;DHT22;5023;53.554;9.964;2024-03-08T04:27:47;1.90;99.90
9965;DHT22;5023;53.554;9.964;2024-03-08T04:32:50;1.90;99.90
9965;DHT22;5023;53.554;9.964;2024-03-08T04:37:54;1.90;99.90
9965;DHT22;5023;53.554;9.964;2024-03-08T04:42:58;1.90;99.90
9965;DHT22;5023;53.554;9.964;2024-03-08T04:48:00;2.00;99.90
9965;DHT22;5023;53.554;9.964;2024-03-08T04:53:04;1.80;99.90
9965;DHT22;5023;53.554;9.964;2024-03-08T04:58:08;1.80;99.90
9965;DHT22;5023;53.554;9.964;2024-03-08T05:03:10;1.70;99.90
9965;DHT22;5023;53.554;9.964;2024-03-08T05:08:25;1.70;99.90
9965;DHT22;5023;53.554;9.964;2024-03-08T05:13:27;1.70;99.90
9965;DHT22;5023;53.554;9.964;2024-03-08T05:18:31;1.60;99.90
9965;DHT22;5023;53.554;9.964;2024-03-08T05:23:35;1.60;99.90
9965;DHT22;5023;53.554;9.964;2024-03-08T05:28:37;1.60;99.90
9965;DHT22;5023;53.554;9.964;2024-03-08T05:33:39;1.50;99.90
9965;DHT22;5023;53.554;9.964;2024-03-08T05:38:44;1.50;99.90
9965;DHT22;5023;53.554;9.964;2024-03-08T05:43:46;2.10;99.90
9965;DHT22;5023;53.554;9.964;2024-03-08T05:48:48;1.60;99.90
9965;DHT22;5023;53.554;9.964;2024-03-08T05:53:52;1.60;99.90
9965;DHT22;5023;53.554;9.964;2024-03-08T05:58:56;1.50;99.90
9965;DHT22;5023;53.554;9.964;2024-03-08T06:03:58;1.60;99.90
9965;DHT22;5023;53.554;9.964;2024-03-08T06:09:02;1.60;99.90
9965;DHT22;5023;53.554;9.964;2024-03-08T06:14:09;1.60;99.90
9965;DHT22;5023;53.554;9.964;2024-03-08T06:19:11;1.70;99.90
9965;DHT22;5023;53.554;9.964;2024-03-08T06:24:15;1.70;99.90
9965;DHT22;5023;53.554;9.964;2024-03-08T06:29:18;1.70;99.90
9965;DHT22;5023;53.554;9.964;2024-03-08T06:34:20;1.70;99.90
9965;DHT22;5023;53.554;9.964;2024-03-08T06:39:23;1.60;99.90
9965;DHT22;5023;53.554;9.964;2024-03-08T06:44:25;2.10;99.90
9965;DHT22;5023;53.554;9.964;2024-03-08T06:49:27;1.70;99.90
9965;DHT22;5023;53.554;9.964;2024-03-08T06:54:31;1.80;99.90
9965;DHT22;5023;53.554;9.964;2024-03-08T06:59:33;1.80;99.90
9965;DHT22;5023;53.554;9.964;2024-03-08T07:04:36;1.90;99.90
9965;DHT22;5023;53.554;9.964;2024-03-08T07:09:40;1.90;99.90
9965;DHT22;5023;53.554;9.964;2024-03-08T07:14:43;1.90;99.90
9965;DHT22;5023;53.554;9.964;2024-03-08T07:19:46;2.00;99.90
9965;DHT22;5023;53.554;9.964;2024-03-08T07:24:49;2.50;99.90
9965;DHT22;5023;53.554;9.964;2024-03-08T07:30:16;2.10;99.90
9965;DHT22;5023;53.554;9.964;2024-03-08T07:35:39;2.20;99.90
9965;DHT22;5023;53.554;9.964;2024-03-08T07:40:44;2.30;99.90
9965;DHT22;5023;53.554;9.964;2024-03-08T07:45:45;2.30;99.90
9965;DHT22;5023;53.554;9.964;2024-03-08T07:50:48;2.40;99.90
9965;DHT22;5023;53.554;9.964;2024-03-08T07:55:51;2.60;99.90
9965;DHT22;5023;53.554;9.964;2024-03-08T08:00:53;3.00;99.90
9965;DHT22;5023;53.554;9.964;2024-03-08T08:05:55;2.60;99.90
9965;DHT22;5023;53.554;9.964;2024-03-08T08:10:58;2.70;99.90
9965;DHT22;5023;53.554;9.964;2024-03-08T08:16:02;2.80;99.90
9965;DHT22;5023;53.554;9.964;2024-03-08T08:21:04;2.90;99.90
9965;DHT22;5023;53.554;9.964;2024-03-08T08:26:08;3.10;99.90
9965;DHT22;5023;53.554;9.964;2024-03-08T08:31:11;3.20;99.90
9965;DHT22;5023;53.554;9.964;2024-03-08T08:36:13;3.30;99.90
9965;DHT22;5023;53.554;9.964;2024-03-08T08:41:17;3.50;99.90
9965;DHT22;5023;53.554;9.964;2024-03-08T08:46:19;3.60;99.90
9965;DHT22;5023;53.554;9.964;2024-03-08T08:51:22;3.80;99.90
9965;DHT22;5023;53.554;9.964;2024-03-08T08:56:25;4.00;99.90
9965;DHT22;5023;53.554;9.964;2024-03-08T09:01:29;4.10;99.90
9965;DHT22;5023;53.554;9.964;2024-03-08T09:06:31;4.30;99.90
9965;DHT22;5023;53.554;9.964;2024-03-08T09:11:37;4.40;99.90
9965;DHT22;5023;53.554;9.964;2024-03-08T09:16:42;4.50;99.90
9965;DHT22;5023;53.554;9.964;2024-03-08T09:21:43;4.60;99.90
9965;DHT22;5023;53.554;9.964;2024-03-08T09:26:47;4.60;99.90
9965;DHT22;5023;53.554;9.964;2024-03-08T09:31:49;4.60;99.90
9965;DHT22;5023;53.554;9.964;2024-03-08T09:36:51;4.80;99.90
9965;DHT22;5023;53.554;9.964;2024-03-08T09:41:54;5.00;99.90
9965;DHT22;5023;53.554;9.964;2024-03-08T09:46:58;4.90;99.90
9965;DHT22;5023;53.554;9.964;2024-03-08T09:52:03;5.10;99.90
9965;DHT22;5023;53.554;9.964;2024-03-08T09:57:07;5.30;99.90
9965;DHT22;5023;53.554;9.964;2024-03-08T10:02:15;5.50;99.90
9965;DHT22;5023;53.554;9.964;2024-03-08T10:07:17;5.70;99.90
9965;DHT22;5023;53.554;9.964;2024-03-08T10:12:20;5.80;99.90
9965;DHT22;5023;53.554;9.964;2024-03-08T10:17:22;6.00;99.90
9965;DHT22;5023;53.554;9.964;2024-03-08T10:22:25;6.10;99.90
9965;DHT22;5023;53.554;9.964;2024-03-08T10:27:31;6.10;99.90
9965;DHT22;5023;53.554;9.964;2024-03-08T10:32:33;6.30;99.90
9965;DHT22;5023;53.554;9.964;2024-03-08T10:37:44;6.30;99.90
9965;DHT22;5023;53.554;9.964;2024-03-08T10:42:52;6.60;99.90
9965;DHT22;5023;53.554;9.964;2024-03-08T10:48:10;6.50;99.90
9965;DHT22;5023;53.554;9.964;2024-03-08T10:53:18;6.70;99.90
9965;DHT22;5023;53.554;9.964;2024-03-08T10:58:24;6.70;99.90
9965;DHT22;5023;53.554;9.964;2024-03-08T11:03:47;6.80;99.90
9965;DHT22;5023;53.554;9.964;2024-03-08T11:08:54;6.80;99.90
9965;DHT22;5023;53.554;9.964;2024-03-08T11:13:59;6.90;99.90
9965;DHT22;5023;53.554;9.964;2024-03-08T11:19:23;7.10;99.90
9965;DHT22;5023;53.554;9.964;2024-03-08T11:24:26;7.10;99.90
9965;DHT22;5023;53.554;9.964;2024-03-08T11:29:38;7.20;99.90
9965;DHT22;5023;53.554;9.964;2024-03-08T11:34:42;7.40;99.90
9965;DHT22;5023;53.554;9.964;2024-03-08T11:39:48;7.30;99.90
9965;DHT22;5023;53.554;9.964;2024-03-08T11:44:52;7.30;99.90
9965;DHT22;5023;53.554;9.964;2024-03-08T11:49:55;7.30;99.90
9965;DHT22;5023;53.554;9.964;2024-03-08T11:54:56;7.60;99.90
9965;DHT22;5023;53.554;9.964;2024-03-08T12:00:00;7.80;99.90
9965;DHT22;5023;53.554;9.964;2024-03-08T12:05:07;7.60;99.90
9965;DHT22;5023;53.554;9.964;2024-03-08T12:10:15;7.80;99.90
9965;DHT22;5023;53.554;9.964;2024-03-08T12:15:21;8.20;99.90
9965;DHT22;5023;53.554;9.964;2024-03-08T12:20:24;8.30;99.90
9965;DHT22;5023;53.554;9.964;2024-03-08T12:25:27;8.40;99.90
9965;DHT22;5023;53.554;9.964;2024-03-08T12:30:33;8.50;99.90
9965;DHT22;5023;53.554;9.964;2024-03-08T12:35:35;8.70;99.90
9965;DHT22;5023;53.554;9.964;2024-03-08T12:40:37;8.60;99.90
9965;DHT22;5023;53.554;9.964;2024-03-08T12:45:43;8.50;99.90
9965;DHT22;5023;53.554;9.964;2024-03-08T12:50:45;8.60;99.90
9965;DHT22;5023;53.554;9.964;2024-03-08T12:55:48;8.70;99.90
9965;DHT22;5023;53.554;9.964;2024-03-08T13:00:52;8.80;99.90
9965;DHT22;5023;53.554;9.964;2024-03-08T13:05:54;9.00;99.70
9965;DHT22;5023;53.554;9.964;2024-03-08T13:10:57;9.00;99.90
9965;DHT22;5023;53.554;9.964;2024-03-08T13:16:01;9.20;99.90
9965;DHT22;5023;53.554;9.964;2024-03-08T13:21:03;9.30;98.90
9965;DHT22;5023;53.554;9.964;2024-03-08T13:26:09;9.50;98.60
9965;DHT22;5023;53.554;9.964;2024-03-08T13:31:14;9.50;96.80
9965;DHT22;5023;53.554;9.964;2024-03-08T13:36:16;9.60;96.20
9965;DHT22;5023;53.554;9.964;2024-03-08T13:41:21;9.50;95.90
9965;DHT22;5023;53.554;9.964;2024-03-08T13:46:26;9.50;95.40
9965;DHT22;5023;53.554;9.964;2024-03-08T13:51:28;9.70;95.50
9965;DHT22;5023;53.554;9.964;2024-03-08T13:56:31;9.70;95.00
9965;DHT22;5023;53.554;9.964;2024-03-08T14:01:34;9.50;95.00
9965;DHT22;5023;53.554;9.964;2024-03-08T14:06:36;9.30;94.90
9965;DHT22;5023;53.554;9.964;2024-03-08T14:11:38;9.30;94.20
9965;DHT22;5023;53.554;9.964;2024-03-08T14:16:43;9.00;94.10
9965;DHT22;5023;53.554;9.964;2024-03-08T14:21:46;9.20;94.30
9965;DHT22;5023;53.554;9.964;2024-03-08T14:26:51;9.20;94.40
9965;DHT22;5023;53.554;9.964;2024-03-08T14:31:56;9.20;93.60
9965;DHT22;5023;53.554;9.964;2024-03-08T14:37:00;9.20;93.10
9965;DHT22;5023;53.554;9.964;2024-03-08T14:42:05;9.20;93.00
9965;DHT22;5023;53.554;9.964;2024-03-08T14:47:10;9.20;92.80
9965;DHT22;5023;53.554;9.964;2024-03-08T14:52:12;9.20;92.90
9965;DHT22;5023;53.554;9.964;2024-03-08T14:57:28;9.30;92.80
9965;DHT22;5023;53.554;9.964;2024-03-08T15:02:34;9.40;92.50
9965;DHT22;5023;53.554;9.964;2024-03-08T15:07:40;9.50;92.30
9965;DHT22;5023;53.554;9.964;2024-03-08T15:12:45;9.30;91.90
9965;DHT22;5023;53.554;9.964;2024-03-08T15:17:49;9.20;91.60
9965;DHT22;5023;53.554;9.964;2024-03-08T15:22:52;9.10;91.40
9965;DHT22;5023;53.554;9.964;2024-03-08T15:27:55;9.10;91.10
9965;DHT22;5023;53.554;9.964;2024-03-08T15:33:00;9.10;90.70
9965;DHT22;5023;53.554;9.964;2024-03-08T15:38:04;9.10;90.40
9965;DHT22;5023;53.554;9.964;2024-03-08T15:43:06;9.10;90.30
9965;DHT22;5023;53.554;9.964;2024-03-08T15:48:10;9.00;90.40
9965;DHT22;5023;53.554;9.964;2024-03-08T15:53:13;9.00;90.70
9965;DHT22;5023;53.554;9.964;2024-03-08T15:58:16;9.00;90.90
9965;DHT22;5023;53.554;9.964;2024-03-08T16:03:20;8.90;90.50
9965;DHT22;5023;53.554;9.964;2024-03-08T16:08:25;8.90;90.60
9965;DHT22;5023;53.554;9.964;2024-03-08T16:13:28;8.80;90.70
9965;DHT22;5023;53.554;9.964;2024-03-08T16:18:32;8.80;91.20
9965;DHT22;5023;53.554;9.964;2024-03-08T16:23:37;8.80;91.10
9965;DHT22;5023;53.554;9.964;2024-03-08T16:28:39;8.80;90.90
9965;DHT22;5023;53.554;9.964;2024-03-08T16:33:46;8.80;90.90
9965;DHT22;5023;53.554;9.964;2024-03-08T16:38:48;8.70;90.70
9965;DHT22;5023;53.554;9.964;2024-03-08T16:43:50;8.70;90.60
9965;DHT22;5023;53.554;9.964;2024-03-08T16:48:53;8.70;90.60
9965;DHT22;5023;53.554;9.964;2024-03-08T16:53:55;8.60;90.80
9965;DHT22;5023;53.554;9.964;2024-03-08T16:59:00;8.60;91.10
9965;DHT22;5023;53.554;9.964;2024-03-08T17:04:06;8.50;91.00
9965;DHT22;5023;53.554;9.964;2024-03-08T17:09:08;8.60;91.40
9965;DHT22;5023;53.554;9.964;2024-03-08T17:14:13;8.50;92.90
9965;DHT22;5023;53.554;9.964;2024-03-08T17:19:16;8.40;95.00
9965;DHT22;5023;53.554;9.964;2024-03-08T17:24:18;8.30;96.80
9965;DHT22;5023;53.554;9.964;2024-03-08T17:29:23;8.20;97.70
9965;DHT22;5023;53.554;9.964;2024-03-08T17:34:27;8.00;98.70
9965;DHT22;5023;53.554;9.964;2024-03-08T17:39:29;8.00;99.40
9965;DHT22;5023;53.554;9.964;2024-03-08T17:44:31;7.90;99.90
9965;DHT22;5023;53.554;9.964;2024-03-08T17:49:34;7.80;99.90
9965;DHT22;5023;53.554;9.964;2024-03-08T17:54:41;7.70;99.90
9965;DHT22;5023;53.554;9.964;2024-03-08T17:59:43;7.60;99.90
9965;DHT22;5023;53.554;9.964;2024-03-08T18:04:48;7.60;99.90
9965;DHT22;5023;53.554;9.964;2024-03-08T18:09:50;7.50;99.90
9965;DHT22;5023;53.554;9.964;2024-03-08T18:14:53;7.50;99.90
9965;DHT22;5023;53.554;9.964;2024-03-08T18:19:56;7.40;99.90
9965;DHT22;5023;53.554;9.964;2024-03-08T18:24:58;7.30;99.90
9965;DHT22;5023;53.554;9.964;2024-03-08T18:30:00;7.30;99.90
9965;DHT22;5023;53.554;9.964;2024-03-08T18:35:06;7.20;99.90
9965;DHT22;5023;53.554;9.964;2024-03-08T18:40:10;7.20;99.90
9965;DHT22;5023;53.554;9.964;2024-03-08T18:45:17;7.10;99.90
9965;DHT22;5023;53.554;9.964;2024-03-08T18:50:21;7.10;99.90
9965;DHT22;5023;53.554;9.964;2024-03-08T18:55:25;7.10;99.90
9965;DHT22;5023;53.554;9.964;2024-03-08T19:00:29;7.10;99.90
9965;DHT22;5023;53.554;9.964;2024-03-08T19:05:39;7.00;99.90
9965;DHT22;5023;53.554;9.964;2024-03-08T19:10:41;6.90;99.90
9965;DHT22;5023;53.554;9.964;2024-03-08T19:15:43;6.90;99.90
9965;DHT22;5023;53.554;9.964;2024-03-08T19:20:47;6.90;99.90
9965;DHT22;5023;53.554;9.964;2024-03-08T19:25:49;6.80;99.90
9965;DHT22;5023;53.554;9.964;2024-03-08T19:30:53;6.80;99.90
9965;DHT22;5023;53.554;9.964;2024-03-08T19:35:56;6.70;99.90
9965;DHT22;5023;53.554;9.964;2024-03-08T19:41:00;6.70;99.90
9965;DHT22;5023;53.554;9.964;2024-03-08T19:46:03;6.70;99.90
9965;DHT22;5023;53.554;9.964;2024-03-08T19:51:11;6.60;99.90
9965;DHT22;5023;53.554;9.964;2024-03-08T19:56:14;6.60;99.90
9965;DHT22;5023;53.554;9.964;2024-03-08T20:01:16;6.70;99.90
9965;DHT22;5023;53.554;9.964;2024-03-08T20:06:20;6.50;99.90
9965;DHT22;5023;53.554;9.964;2024-03-08T20:11:23;6.80;99.90
9965;DHT22;5023;53.554;9.964;2024-03-08T20:16:25;6.50;99.90
9965;DHT22;5023;53.554;9.964;2024-03-08T20:21:29;6.50;99.90
9965;DHT22;5023;53.554;9.964;2024-03-08T20:26:31;6.40;99.90
9965;DHT22;5023;53.554;9.964;2024-03-08T20:31:33;6.40;99.90
9965;DHT22;5023;53.554;9.964;2024-03-08T20:36:36;6.40;99.90
9965;DHT22;5023;53.554;9.964;2024-03-08T20:41:39;6.30;99.90
9965;DHT22;5023;53.554;9.964;2024-03-08T20:46:41;6.20;99.90
9965;DHT22;5023;53.554;9.964;2024-03-08T20:51:44;6.30;99.90
9965;DHT22;5023;53.554;9.964;2024-03-08T20:56:46;6.30;99.90
9965;DHT22;5023;53.554;9.964;2024-03-08T21:01:48;6.30;99.90
9965;DHT22;5023;53.554;9.964;2024-03-08T21:06:53;6.20;99.90
9965;DHT22;5023;53.554;9.964;2024-03-08T21:11:58;6.20;99.90
9965;DHT22;5023;53.554;9.964;2024-03-08T21:17:00;6.20;99.90
9965;DHT22;5023;53.554;9.964;2024-03-08T21:22:04;6.10;99.90
9965;DHT22;5023;53.554;9.964;2024-03-08T21:27:07;6.10;99.90
9965;DHT22;5023;53.554;9.964;2024-03-08T21:32:10;6.10;99.90
9965;DHT22;5023;53.554;9.964;2024-03-08T21:37:13;6.10;99.90
9965;DHT22;5023;53.554;9.964;2024-03-08T21:42:15;6.00;99.90
9965;DHT22;5023;53.554;9.964;2024-03-08T21:47:18;6.10;99.90
9965;DHT22;5023;53.554;9.964;2024-03-08T21:52:23;6.00;99.90
9965;DHT22;5023;53.554;9.964;2024-03-08T21:57:25;6.00;99.90
9965;DHT22;5023;53.554;9.964;2024-03-08T22:02:28;6.00;99.90
9965;DHT22;5023;53.554;9.964;2024-03-08T22:07:32;5.90;99.90
9965;DHT22;5023;53.554;9.964;2024-03-08T22:12:36;5.90;99.90
9965;DHT22;5023;53.554;9.964;2024-03-08T22:17:40;5.70;99.90
9965;DHT22;5023;53.554;9.964;2024-03-08T22:22:44;5.80;99.90
9965;DHT22;5023;53.554;9.964;2024-03-08T22:27:47;5.70;99.90
9965;DHT22;5023;53.554;9.964;2024-03-08T22:32:51;5.70;99.90
9965;DHT22;5023;53.554;9.964;2024-03-08T22:37:55;5.60;99.90
9965;DHT22;5023;53.554;9.964;2024-03-08T22:42:57;5.60;99.90
9965;DHT22;5023;53.554;9.964;2024-03-08T22:47:59;5.50;99.90
9965;DHT22;5023;53.554;9.964;2024-03-08T22:53:03;5.60;99.90
9965;DHT22;5023;53.554;9.964;2024-03-08T22:58:05;5.50;99.90
9965;DHT22;5023;53.554;9.964;2024-03-08T23:03:07;5.50;99.90
9965;DHT22;5023;53.554;9.964;2024-03-08T23:08:12;5.50;99.90
9965;DHT22;5023;53.554;9.964;2024-03-08T23:13:14;5.40;99.90
9965;DHT22;5023;53.554;9.964;2024-03-08T23:18:17;5.40;99.90
9965;DHT22;5023;53.554;9.964;2024-03-08T23:23:22;5.60;99.90
9965;DHT22;5023;53.554;9.964;2024-03-08T23:28:25;5.30;99.90
9965;DHT22;5023;53.554;9.964;2024-03-08T23:33:29;5.30;99.90
9965;DHT22;5023;53.554;9.964;2024-03-08T23:38:33;5.30;99.90
9965;DHT22;5023;53.554;9.964;2024-03-08T23:43:35;5.30;99.90
9965;DHT22;5023;53.554;9.964;2024-03-08T23:48:38;5.20;99.90
9965;DHT22;5023;53.554;9.964;2024-03-08T23:53:42;5.20;99.90
9965;DHT22;5023;53.554;9.964;2024-03-08T23:58:47;5.10;99.90
